KDWH/DWH METAR and TAF weather

Enter ICAO airport designator
Station Type Date Time Source
KDWH METAR 2018/12/10 23:53 UTC NOAA

KDWH 102353Z AUTO 30003KT 10SM CLR 09/02 A3038 RMK AO2 SLP286 T00940022 10144 20094 53010


Station Type Date Time Source
KDWH Decoded METAR 2018/12/10 23:53 UTC NOAA

HOUSTON HOOKS MEMORIAL, TX, United States (KDWH) 30-04N 95-33W 46M
Dec 10, 2018 - 06:53 PM EST / 2018.12.10 2353 UTC
Wind: from the WNW (300 degrees) at 3 MPH (3 KT):0
Visibility: 10 mile(s):0
Sky conditions: clear
Temperature: 48.9 F (9.4 C)
Dew Point: 36.0 F (2.2 C)
Relative Humidity: 60%
Pressure (altimeter): 30.38 in. Hg (1028 hPa)
Pressure tendency: 0.03 inches (1.0 hPa) higher than three hours ago
ob: KDWH 102353Z AUTO 30003KT 10SM CLR 09/02 A3038 RMK AO2 SLP286 T00940022 10144 20094 53010
cycle: 0

Station Type Date Time Source
KDWH TAF 2017/02/07 15:09 UTC NOAA

TAF
AMD KDWH 071507Z 0715/0812 23010KT P6SM BKN015
TEMPO 0715/0719 SCT015
FM071900 25010KT P6SM SCT025
FM080100 22005KT P6SM SCT250
TEMPO 0807/0809 3SM BR BKN013
FM080900 VRB03KT 2SM BR OVC008


Example: see airport list